createdAt,value
2017-11-13T00:02:22.130Z,59.50
2017-11-13T00:04:50.739Z,59.80
2017-11-13T00:07:18.852Z,59.80
2017-11-13T00:09:46.761Z,59.90
2017-11-13T00:12:15.363Z,60.30
2017-11-13T00:14:43.164Z,60.20
2017-11-13T00:17:11.200Z,60.30
2017-11-13T00:19:39.027Z,60.30
2017-11-13T00:22:06.863Z,60.50
2017-11-13T00:24:34.673Z,60.00
2017-11-13T00:27:03.258Z,60.40
2017-11-13T00:29:31.906Z,60.50
2017-11-13T00:31:59.740Z,60.50
2017-11-13T00:34:27.591Z,60.50
2017-11-13T00:36:56.205Z,61.30
2017-11-13T00:39:24.041Z,61.50
2017-11-13T00:41:52.238Z,61.20
2017-11-13T00:44:20.125Z,60.80
2017-11-13T00:46:48.026Z,60.80
2017-11-13T00:49:16.781Z,61.00
2017-11-13T00:51:44.632Z,61.00
2017-11-13T00:54:12.534Z,60.90
2017-11-13T00:56:40.360Z,60.60
2017-11-13T00:59:08.197Z,60.10
2017-11-13T01:01:36.029Z,58.80
2017-11-13T01:04:03.927Z,58.60
2017-11-13T01:06:31.759Z,58.50
2017-11-13T01:09:00.365Z,58.30
2017-11-13T01:11:28.944Z,58.30
2017-11-13T01:13:57.590Z,58.20
2017-11-13T01:16:25.453Z,58.20
2017-11-13T01:18:53.406Z,58.20
2017-11-13T01:21:21.303Z,58.50
2017-11-13T01:23:49.119Z,58.40
2017-11-13T01:26:16.952Z,58.00
2017-11-13T01:28:45.645Z,54.90
2017-11-13T01:31:13.492Z,54.90
2017-11-13T01:33:41.314Z,54.90
2017-11-13T01:36:09.129Z,53.80
2017-11-13T01:38:36.967Z,52.90
2017-11-13T01:41:04.826Z,51.20
2017-11-13T01:43:32.677Z,51.10
2017-11-13T01:46:00.548Z,50.30
2017-11-13T01:48:28.392Z,49.40
2017-11-13T01:50:57.059Z,48.60
2017-11-13T01:53:25.901Z,48.20
2017-11-13T01:55:53.712Z,48.20
2017-11-13T01:58:21.542Z,48.70
2017-11-13T02:00:49.370Z,48.60
2017-11-13T02:03:17.537Z,48.00
2017-11-13T02:05:45.498Z,47.90
2017-11-13T02:08:13.717Z,47.70
2017-11-13T02:10:41.674Z,48.00
2017-11-13T02:13:09.855Z,48.20
2017-11-13T02:15:37.732Z,48.00
2017-11-13T02:18:05.681Z,47.50
2017-11-13T02:20:33.684Z,47.40
2017-11-13T02:23:01.639Z,47.50
2017-11-13T02:25:31.194Z,47.90
2017-11-13T02:27:59.165Z,47.60
2017-11-13T02:30:27.134Z,47.10
2017-11-13T02:32:55.060Z,45.90
2017-11-13T02:35:23.175Z,45.10
2017-11-13T02:37:51.109Z,44.70
2017-11-13T02:40:20.091Z,44.20
2017-11-13T02:42:48.012Z,44.20
2017-11-13T02:45:15.905Z,42.40
2017-11-13T02:47:43.877Z,42.30
2017-11-13T02:50:11.861Z,43.60
2017-11-13T02:52:39.953Z,44.10
2017-11-13T02:55:08.609Z,45.60
2017-11-13T02:57:36.522Z,45.60
2017-11-13T03:00:05.390Z,46.40
2017-11-13T03:02:34.018Z,47.80
2017-11-13T03:05:01.873Z,47.70
2017-11-13T03:07:29.722Z,48.10
2017-11-13T03:09:58.306Z,49.00
2017-11-13T03:12:26.890Z,49.80
2017-11-13T03:14:55.482Z,50.50
2017-11-13T03:17:23.321Z,50.90
2017-11-13T03:19:52.153Z,51.40
2017-11-13T03:22:20.000Z,51.40
2017-11-13T03:24:47.878Z,52.10
2017-11-13T03:27:15.767Z,52.50
2017-11-13T03:29:43.622Z,52.40
2017-11-13T03:32:11.491Z,52.00
2017-11-13T03:34:39.335Z,51.60
2017-11-13T03:37:07.148Z,51.10
2017-11-13T03:39:34.951Z,50.50
2017-11-13T03:42:03.568Z,45.20
2017-11-13T03:44:32.128Z,45.20
2017-11-13T03:46:59.947Z,45.30
2017-11-13T03:49:27.810Z,44.10
2017-11-13T03:54:50.403Z,42.00
2017-11-13T03:57:20.130Z,41.40
2017-11-13T03:59:48.967Z,40.90
2017-11-13T04:02:16.777Z,40.70
2017-11-13T04:04:45.460Z,40.10
2017-11-13T04:07:13.413Z,40.00
2017-11-13T04:09:41.353Z,39.90
2017-11-13T04:12:09.159Z,40.00
2017-11-13T04:14:37.857Z,41.80
2017-11-13T04:17:05.829Z,41.80
2017-11-13T04:19:33.723Z,41.70
2017-11-13T04:22:01.525Z,40.40
2017-11-13T04:24:29.317Z,39.80
2017-11-13T04:26:58.173Z,39.10
2017-11-13T04:29:25.983Z,39.10
2017-11-13T04:31:53.823Z,38.60
2017-11-13T04:34:22.735Z,38.50
2017-11-13T04:36:50.575Z,38.50
2017-11-13T04:39:18.368Z,38.40
2017-11-13T04:41:46.183Z,38.00
2017-11-13T04:44:14.045Z,38.70
2017-11-13T04:46:41.854Z,38.20
2017-11-13T04:49:10.506Z,38.30
2017-11-13T04:51:38.348Z,38.30
2017-11-13T04:54:06.179Z,37.70
2017-11-13T04:56:33.992Z,37.20
2017-11-13T04:59:01.807Z,36.90
2017-11-13T05:01:29.688Z,35.60
2017-11-13T05:03:57.738Z,36.00
2017-11-13T05:06:26.403Z,35.20
2017-11-13T05:08:54.434Z,35.20
2017-11-13T05:11:22.335Z,35.20
2017-11-13T05:13:50.227Z,35.80
2017-11-13T05:16:18.135Z,36.70
2017-11-13T05:18:46.080Z,37.60
2017-11-13T05:21:14.274Z,31.90
2017-11-13T05:23:42.133Z,30.50
2017-11-13T05:26:10.140Z,32.50
2017-11-13T05:28:37.942Z,33.20
2017-11-13T05:31:06.718Z,34.20
2017-11-13T05:33:35.302Z,34.60
2017-11-13T05:36:05.213Z,34.20
2017-11-13T05:38:33.855Z,34.50
2017-11-13T05:41:01.723Z,34.50
2017-11-13T05:43:29.718Z,34.20
2017-11-13T05:45:57.552Z,34.40
2017-11-13T05:48:25.529Z,34.00
2017-11-13T05:50:53.359Z,34.20
2017-11-13T05:53:21.287Z,34.50
2017-11-13T05:55:49.097Z,32.60
2017-11-13T05:58:17.225Z,33.60
2017-11-13T06:00:45.120Z,33.50
2017-11-13T06:03:12.999Z,32.70
2017-11-13T06:05:40.791Z,32.30
2017-11-13T06:08:08.595Z,32.60
2017-11-13T06:10:36.510Z,33.20
2017-11-13T06:13:04.371Z,33.00
2017-11-13T06:15:32.289Z,33.60
2017-11-13T06:18:01.045Z,32.90
2017-11-13T06:20:28.875Z,32.90
2017-11-13T06:22:56.740Z,33.60
2017-11-13T06:25:24.610Z,34.20
2017-11-13T06:27:52.501Z,34.20
2017-11-13T06:30:20.325Z,35.10
2017-11-13T06:36:19.292Z,34.10
2017-11-13T06:38:47.243Z,33.70
2017-11-13T06:41:15.093Z,33.30
2017-11-13T06:43:42.937Z,33.30
2017-11-13T06:46:11.556Z,32.50
2017-11-13T06:48:39.382Z,32.50
2017-11-13T06:51:07.271Z,32.70
2017-11-13T06:53:35.097Z,32.30
2017-11-13T06:56:03.073Z,32.30
2017-11-13T06:58:30.978Z,32.30
2017-11-13T07:00:58.862Z,31.80
2017-11-13T07:03:26.673Z,32.00
2017-11-13T07:05:54.550Z,32.30
2017-11-13T07:08:22.421Z,32.30
2017-11-13T07:10:50.254Z,32.30
2017-11-13T07:13:18.107Z,32.50
2017-11-13T07:15:45.991Z,32.30
2017-11-13T07:18:13.985Z,32.20
2017-11-13T07:20:41.946Z,32.00
2017-11-13T07:23:09.813Z,32.40
2017-11-13T07:25:38.402Z,32.90
2017-11-13T07:28:07.070Z,33.20
2017-11-13T07:30:35.839Z,33.20
2017-11-13T07:33:03.669Z,33.20
2017-11-13T07:35:31.576Z,33.20
2017-11-13T07:37:59.426Z,33.20
2017-11-13T07:40:27.275Z,33.50
2017-11-13T07:42:55.184Z,34.00
2017-11-13T07:45:23.005Z,34.30
2017-11-13T07:47:50.929Z,34.10
2017-11-13T07:50:18.844Z,33.40
2017-11-13T07:52:47.149Z,33.90
2017-11-13T07:55:16.578Z,34.20
2017-11-13T07:57:44.463Z,33.90
2017-11-13T08:00:12.317Z,34.20
2017-11-13T08:02:41.733Z,34.30
2017-11-13T08:05:09.629Z,34.20
2017-11-13T08:07:37.498Z,34.40
2017-11-13T08:10:05.410Z,34.10
2017-11-13T08:12:35.016Z,32.30
2017-11-13T08:15:04.793Z,32.20
2017-11-13T08:17:33.870Z,32.20
2017-11-13T08:20:01.726Z,33.10
2017-11-13T08:22:29.686Z,32.60
2017-11-13T08:24:57.611Z,32.50
2017-11-13T08:27:27.599Z,32.70
2017-11-13T08:29:55.648Z,33.60
2017-11-13T08:32:23.503Z,34.00
2017-11-13T08:34:51.457Z,35.40
2017-11-13T08:37:20.926Z,36.00
2017-11-13T08:39:48.838Z,36.00
2017-11-13T08:42:16.690Z,37.30
2017-11-13T08:44:45.382Z,39.80
2017-11-13T08:47:13.998Z,41.30
2017-11-13T08:49:41.925Z,41.40
2017-11-13T08:52:09.841Z,44.90
2017-11-13T08:54:37.738Z,46.70
2017-11-13T08:57:05.653Z,47.20
2017-11-13T08:59:33.588Z,49.40
2017-11-13T09:02:02.220Z,50.30
2017-11-13T09:04:30.070Z,50.20
2017-11-13T09:06:57.921Z,50.50
2017-11-13T09:09:26.559Z,51.10
2017-11-13T09:11:54.476Z,51.10
2017-11-13T09:14:23.204Z,49.30
2017-11-13T09:16:51.143Z,49.30
2017-11-13T09:19:19.040Z,48.30
2017-11-13T09:21:46.865Z,48.00
2017-11-13T09:24:14.778Z,47.90
2017-11-13T09:26:42.686Z,47.20
2017-11-13T09:29:10.553Z,46.20
2017-11-13T09:31:39.144Z,44.70
2017-11-13T09:34:07.070Z,44.70
2017-11-13T09:36:35.217Z,43.80
2017-11-13T09:39:03.149Z,43.60
2017-11-13T09:41:31.790Z,43.90
2017-11-13T09:43:59.697Z,44.00
2017-11-13T09:46:27.602Z,43.70
2017-11-13T09:48:55.513Z,42.60
2017-11-13T09:51:23.432Z,42.50
2017-11-13T09:53:51.316Z,41.20
2017-11-13T09:56:19.226Z,41.30
2017-11-13T09:58:47.869Z,41.30
2017-11-13T10:01:16.448Z,41.40
2017-11-13T10:03:46.033Z,41.80
2017-11-13T10:06:14.837Z,41.70
2017-11-13T10:08:43.040Z,41.70
2017-11-13T10:11:10.915Z,42.10
2017-11-13T10:13:38.855Z,44.00
2017-11-13T10:16:06.928Z,44.50
2017-11-13T10:18:35.792Z,45.10
2017-11-13T10:21:03.794Z,45.10
2017-11-13T10:23:31.834Z,45.50
2017-11-13T10:25:59.778Z,43.70
2017-11-13T10:28:27.740Z,43.90
2017-11-13T10:30:56.426Z,45.00
2017-11-13T10:33:24.420Z,44.90
2017-11-13T10:35:52.326Z,46.10
2017-11-13T10:38:20.332Z,47.10
2017-11-13T10:40:48.236Z,47.60
2017-11-13T10:43:16.117Z,47.40
2017-11-13T10:45:44.006Z,47.20
2017-11-13T10:48:12.122Z,47.00
2017-11-13T10:50:40.185Z,47.30
2017-11-13T10:53:08.103Z,48.10
2017-11-13T10:55:36.019Z,48.40
2017-11-13T10:58:04.104Z,48.00
2017-11-13T11:00:32.379Z,47.80
2017-11-13T11:03:00.721Z,47.00
2017-11-13T11:05:29.461Z,47.10
2017-11-13T11:07:57.386Z,46.50
2017-11-13T11:10:27.535Z,46.10
2017-11-13T11:12:55.570Z,46.00
2017-11-13T11:15:25.335Z,46.50
2017-11-13T11:18:08.090Z,46.50
2017-11-13T11:20:37.318Z,45.80
2017-11-13T11:23:09.134Z,45.80
2017-11-13T11:25:37.125Z,45.70
2017-11-13T11:28:21.425Z,45.60
2017-11-13T11:30:52.797Z,45.50
2017-11-13T11:33:31.380Z,45.90
2017-11-13T11:35:59.970Z,46.20
2017-11-13T11:38:28.676Z,44.30
2017-11-13T11:40:59.718Z,43.60
2017-11-13T11:43:27.625Z,42.60
2017-11-13T11:46:08.348Z,41.00
2017-11-13T11:48:37.269Z,40.90
2017-11-13T11:51:05.307Z,43.20
2017-11-13T11:53:34.113Z,45.00
2017-11-13T11:56:20.833Z,45.00
2017-11-13T11:58:49.852Z,43.80
2017-11-13T12:01:17.880Z,43.80
2017-11-13T12:03:45.943Z,45.00
2017-11-13T12:06:14.035Z,45.90
2017-11-13T12:08:41.966Z,47.00
2017-11-13T12:11:10.124Z,49.50
2017-11-13T12:13:38.033Z,49.40
2017-11-13T12:16:06.682Z,49.80
2017-11-13T12:18:34.597Z,49.30
2017-11-13T12:21:02.615Z,48.30
2017-11-13T12:23:30.502Z,45.70
2017-11-13T12:25:58.302Z,45.00
2017-11-13T12:28:26.109Z,45.70
2017-11-13T12:30:53.964Z,45.00
2017-11-13T12:33:21.834Z,45.40
2017-11-13T12:35:49.849Z,45.70
2017-11-13T12:38:17.757Z,44.50
2017-11-13T12:40:45.616Z,44.50
2017-11-13T12:43:14.300Z,45.10
2017-11-13T12:45:42.945Z,45.20
2017-11-13T12:48:10.879Z,45.10
2017-11-13T12:50:38.710Z,44.60
2017-11-13T12:53:07.380Z,45.50
2017-11-13T12:55:35.373Z,45.50
2017-11-13T12:58:04.245Z,46.60
2017-11-13T13:00:32.208Z,46.60
2017-11-13T13:03:00.044Z,45.70
2017-11-13T13:05:27.968Z,45.00
2017-11-13T13:07:56.562Z,47.80
2017-11-13T13:10:24.485Z,47.70
2017-11-13T13:12:52.365Z,46.80
2017-11-13T13:15:20.270Z,47.80
2017-11-13T13:17:48.286Z,47.80
2017-11-13T13:20:16.166Z,48.10
2017-11-13T13:22:44.139Z,50.10
2017-11-13T13:25:12.088Z,51.60
2017-11-13T13:27:39.918Z,52.30
2017-11-13T13:30:07.849Z,52.60
2017-11-13T13:32:36.547Z,55.90
2017-11-13T13:35:05.227Z,58.50
2017-11-13T13:37:33.973Z,58.40
2017-11-13T13:40:01.811Z,58.40
2017-11-13T13:42:29.655Z,59.60
2017-11-13T13:44:58.319Z,61.00
2017-11-13T13:47:27.002Z,60.50
2017-11-13T13:49:55.755Z,60.00
2017-11-13T13:52:23.828Z,59.90
2017-11-13T13:54:51.688Z,59.40
2017-11-13T13:57:19.746Z,60.40
2017-11-13T13:59:47.697Z,60.30
2017-11-13T14:02:15.753Z,60.50
2017-11-13T14:04:43.700Z,60.70
2017-11-13T14:07:11.680Z,60.60
2017-11-13T14:09:39.576Z,60.10
2017-11-13T14:12:07.815Z,59.30
2017-11-13T14:14:35.923Z,58.70
2017-11-13T14:17:03.882Z,58.10
2017-11-13T14:19:32.537Z,56.80
2017-11-13T14:22:00.460Z,56.80
2017-11-13T14:24:28.479Z,56.20
2017-11-13T14:26:56.494Z,55.50
2017-11-13T14:29:24.497Z,55.20
2017-11-13T14:31:52.596Z,54.90
2017-11-13T14:34:21.428Z,56.60
2017-11-13T14:36:49.477Z,56.60
2017-11-13T14:39:18.237Z,56.90
2017-11-13T14:41:46.132Z,56.60
2017-11-13T14:44:14.029Z,55.60
2017-11-13T14:46:41.880Z,54.10
2017-11-13T14:49:09.773Z,53.20
2017-11-13T14:51:37.644Z,52.70
2017-11-13T14:54:05.516Z,53.40
2017-11-13T14:56:33.547Z,54.10
2017-11-13T14:59:01.491Z,53.90
2017-11-13T15:01:29.436Z,52.60
2017-11-13T15:03:58.213Z,51.20
2017-11-13T15:06:26.102Z,51.20
2017-11-13T15:08:54.800Z,54.20
2017-11-13T15:11:23.624Z,55.00
2017-11-13T15:13:51.787Z,55.00
2017-11-13T15:16:19.686Z,55.40
2017-11-13T15:18:47.561Z,55.40
2017-11-13T15:21:15.417Z,55.10
2017-11-13T15:23:43.296Z,54.30
2017-11-13T15:26:11.158Z,54.00
2017-11-13T15:28:39.072Z,54.00
2017-11-13T15:31:06.925Z,52.50
2017-11-13T15:33:35.694Z,52.00
2017-11-13T15:36:04.318Z,53.00
2017-11-13T15:38:32.246Z,53.00
2017-11-13T15:41:00.103Z,53.70
2017-11-13T15:43:27.979Z,55.10
2017-11-13T15:45:55.868Z,53.40
2017-11-13T15:48:23.827Z,53.10
2017-11-13T15:50:52.493Z,53.60
2017-11-13T15:53:20.559Z,53.50
2017-11-13T15:55:48.570Z,53.80
2017-11-13T15:58:16.409Z,54.10
2017-11-13T16:00:44.412Z,54.70
2017-11-13T16:03:13.269Z,56.10
2017-11-13T16:05:41.201Z,56.10
2017-11-13T16:08:09.262Z,56.30
2017-11-13T16:10:39.378Z,56.30
2017-11-13T16:13:07.277Z,56.20
2017-11-13T16:15:35.460Z,56.00
2017-11-13T16:18:03.580Z,55.90
2017-11-13T16:20:31.529Z,56.40
2017-11-13T16:23:00.220Z,56.50
2017-11-13T16:25:28.309Z,56.50
2017-11-13T16:27:56.333Z,56.70
2017-11-13T16:30:25.101Z,55.50
2017-11-13T16:32:53.011Z,55.50
2017-11-13T16:35:23.370Z,55.30
2017-11-13T16:37:51.328Z,55.40
2017-11-13T16:40:19.417Z,55.10
2017-11-13T16:42:47.441Z,54.80
2017-11-13T16:45:15.304Z,54.70
2017-11-13T16:47:44.003Z,54.60
2017-11-13T16:50:11.921Z,54.50
2017-11-13T16:52:39.869Z,54.40
2017-11-13T16:55:07.687Z,54.10
2017-11-13T16:57:35.645Z,54.00
2017-11-13T17:00:03.800Z,53.90
2017-11-13T17:02:31.757Z,54.10
2017-11-13T17:04:59.635Z,53.70
2017-11-13T17:07:27.510Z,53.70
2017-11-13T17:09:55.360Z,53.40
2017-11-13T17:12:23.219Z,53.50
2017-11-13T17:14:51.036Z,53.40
2017-11-13T17:17:19.680Z,53.30
2017-11-13T17:19:47.552Z,53.20
2017-11-13T17:22:15.378Z,53.00
2017-11-13T17:24:43.205Z,52.80
2017-11-13T17:27:11.820Z,52.90
2017-11-13T17:29:39.737Z,52.90
2017-11-13T17:32:07.565Z,52.70
2017-11-13T17:34:35.610Z,52.60
2017-11-13T17:37:04.286Z,52.10
2017-11-13T17:39:32.316Z,52.10
2017-11-13T17:42:00.169Z,51.50
2017-11-13T17:44:28.126Z,51.30
2017-11-13T17:46:56.057Z,51.30
2017-11-13T17:49:24.647Z,50.80
2017-11-13T17:51:53.432Z,51.00
2017-11-13T17:54:22.154Z,51.00
2017-11-13T17:56:50.056Z,51.00
2017-11-13T17:59:17.977Z,51.20
2017-11-13T18:01:46.004Z,50.90
2017-11-13T18:04:13.994Z,51.10
2017-11-13T18:06:42.693Z,50.40
2017-11-13T18:09:10.586Z,50.30
2017-11-13T18:11:38.469Z,50.30
2017-11-13T18:14:06.480Z,49.70
2017-11-13T18:16:35.228Z,49.20
2017-11-13T18:19:03.162Z,49.10
2017-11-13T18:21:31.027Z,49.30
2017-11-13T18:23:58.871Z,49.30
2017-11-13T18:26:27.511Z,48.80
2017-11-13T18:28:55.349Z,48.80
2017-11-13T18:31:23.349Z,48.70
2017-11-13T18:33:51.288Z,48.80
2017-11-13T18:36:19.122Z,48.50
2017-11-13T18:38:48.956Z,48.20
2017-11-13T18:41:16.898Z,48.20
2017-11-13T18:43:44.756Z,47.70
2017-11-13T18:46:13.349Z,47.50
2017-11-13T18:48:42.007Z,47.20
2017-11-13T18:51:09.879Z,47.20
2017-11-13T18:53:37.718Z,46.70
2017-11-13T18:56:05.584Z,46.50
2017-11-13T18:58:33.563Z,46.20
2017-11-13T19:01:01.468Z,46.40
2017-11-13T19:03:29.346Z,46.20
2017-11-13T19:05:57.267Z,45.60
2017-11-13T19:08:25.190Z,45.50
2017-11-13T19:10:53.108Z,45.50
2017-11-13T19:13:21.034Z,45.40
2017-11-13T19:15:49.035Z,45.50
2017-11-13T19:18:16.915Z,45.60
2017-11-13T19:20:44.803Z,45.50
2017-11-13T19:23:13.609Z,45.10
2017-11-13T19:25:41.482Z,45.00
2017-11-13T19:28:09.627Z,45.60
2017-11-13T19:30:38.377Z,45.90
2017-11-13T19:33:06.228Z,45.90
2017-11-13T19:35:34.105Z,45.50
2017-11-13T19:38:02.035Z,45.40
2017-11-13T19:40:30.000Z,46.20
2017-11-13T19:42:58.735Z,46.50
2017-11-13T19:45:26.652Z,46.50
2017-11-13T19:47:54.619Z,46.70
2017-11-13T19:50:22.444Z,46.50
2017-11-13T19:52:50.403Z,46.70
2017-11-13T19:55:18.230Z,46.40
2017-11-13T19:57:46.121Z,46.10
2017-11-13T20:00:13.991Z,44.70
2017-11-13T20:02:41.854Z,44.60
2017-11-13T20:05:09.876Z,44.50
2017-11-13T20:07:40.497Z,44.60
2017-11-13T20:10:08.318Z,44.60
2017-11-13T20:12:36.175Z,44.90
2017-11-13T20:15:04.492Z,44.30
2017-11-13T20:17:32.337Z,44.50
2017-11-13T20:20:00.171Z,44.70
2017-11-13T20:22:28.036Z,44.60
2017-11-13T20:24:55.872Z,44.00
2017-11-13T20:27:23.787Z,44.10
2017-11-13T20:29:51.699Z,44.50
2017-11-13T20:32:19.622Z,44.10
2017-11-13T20:34:47.455Z,44.10
2017-11-13T20:37:16.097Z,44.50
2017-11-13T20:39:43.970Z,44.40
2017-11-13T20:42:11.877Z,44.20
2017-11-13T20:44:41.780Z,43.30
2017-11-13T20:47:10.518Z,42.20
2017-11-13T20:49:38.498Z,42.30
2017-11-13T20:52:06.681Z,42.40
2017-11-13T20:54:34.505Z,41.90
2017-11-13T20:57:02.504Z,41.70
2017-11-13T20:59:34.540Z,41.60
2017-11-13T21:02:02.462Z,42.40
2017-11-13T21:04:30.357Z,42.90
2017-11-13T21:06:58.682Z,43.20
2017-11-13T21:09:26.601Z,43.70
2017-11-13T21:11:54.436Z,44.10
2017-11-13T21:14:26.533Z,44.80
2017-11-13T21:16:55.579Z,44.70
2017-11-13T21:19:23.538Z,44.80
2017-11-13T21:21:51.357Z,45.00
2017-11-13T21:24:20.913Z,45.00
2017-11-13T21:26:48.828Z,45.00
2017-11-13T21:29:17.579Z,45.40
2017-11-13T21:31:45.421Z,45.50
2017-11-13T21:34:13.491Z,45.10
2017-11-13T21:36:41.352Z,45.10
2017-11-13T21:39:09.768Z,45.10
2017-11-13T21:41:37.762Z,44.90
2017-11-13T21:44:06.422Z,44.90
2017-11-13T21:46:35.081Z,45.00
2017-11-13T21:49:03.806Z,45.20
2017-11-13T21:51:32.427Z,44.60
2017-11-13T21:54:00.257Z,44.60
2017-11-13T21:56:28.976Z,44.50
2017-11-13T21:58:56.850Z,44.50
2017-11-13T22:01:24.664Z,44.50
2017-11-13T22:03:52.501Z,44.60
2017-11-13T22:06:20.337Z,44.20
2017-11-13T22:08:48.237Z,44.30
2017-11-13T22:11:16.155Z,44.00
2017-11-13T22:13:44.780Z,43.60
2017-11-13T22:16:12.828Z,43.60
2017-11-13T22:18:40.825Z,43.40
2017-11-13T22:21:09.197Z,43.10
2017-11-13T22:23:37.213Z,43.10
2017-11-13T22:26:06.165Z,43.10
2017-11-13T22:28:34.026Z,43.10
2017-11-13T22:31:01.976Z,43.00
2017-11-13T22:33:29.958Z,42.50
2017-11-13T22:35:57.965Z,42.60
2017-11-13T22:38:25.961Z,42.30
2017-11-13T22:40:54.612Z,42.50
2017-11-13T22:43:24.245Z,42.10
2017-11-13T22:45:52.896Z,41.90
2017-11-13T22:48:20.799Z,41.90
2017-11-13T22:50:49.660Z,41.70
2017-11-13T22:53:17.569Z,41.70
2017-11-13T22:55:46.313Z,41.30
2017-11-13T22:58:14.249Z,41.20
2017-11-13T23:00:42.285Z,41.00
2017-11-13T23:03:11.910Z,39.30
2017-11-13T23:05:39.732Z,39.30
2017-11-13T23:08:07.572Z,39.40
2017-11-13T23:10:36.236Z,39.30
2017-11-13T23:13:04.176Z,38.60
2017-11-13T23:15:32.026Z,37.10
2017-11-13T23:17:59.853Z,36.80
2017-11-13T23:20:27.777Z,35.20
2017-11-13T23:22:55.662Z,34.70
2017-11-13T23:25:23.519Z,34.30
2017-11-13T23:27:51.420Z,32.90
2017-11-13T23:30:19.344Z,31.50
2017-11-13T23:32:47.999Z,32.00
2017-11-13T23:35:15.878Z,32.00
2017-11-13T23:37:43.947Z,31.70
2017-11-13T23:40:12.576Z,31.30
2017-11-13T23:42:40.444Z,31.20
2017-11-13T23:45:08.429Z,31.70
2017-11-13T23:47:36.275Z,32.30
2017-11-13T23:50:04.324Z,32.50
2017-11-13T23:52:32.353Z,32.50
2017-11-13T23:55:00.260Z,32.60
2017-11-13T23:57:29.637Z,31.90
2017-11-13T23:59:57.491Z,31.90
